createdAt,value
2022-11-11T00:01:28.947Z,49.70
2022-11-11T00:04:14.837Z,52.28
2022-11-11T00:07:00.888Z,67.90
2022-11-11T00:09:46.678Z,71.68
2022-11-11T00:12:32.406Z,93.68
2022-11-11T00:15:18.023Z,72.93
2022-11-11T00:18:23.579Z,68.95
2022-11-11T00:21:32.324Z,82.72
2022-11-11T00:24:48.469Z,80.40
2022-11-11T00:27:35.424Z,110.32
2022-11-11T00:30:21.152Z,114.38
2022-11-11T00:33:07.010Z,106.07
2022-11-11T00:35:54.277Z,102.28
2022-11-11T00:38:46.695Z,98.20
2022-11-11T00:41:32.649Z,86.78
2022-11-11T00:44:18.515Z,102.30
2022-11-11T00:47:23.044Z,88.40
2022-11-11T00:50:31.573Z,102.13
2022-11-11T00:53:26.983Z,90.03
2022-11-11T00:56:13.457Z,87.53
2022-11-11T00:58:59.081Z,92.47
2022-11-11T01:01:45.170Z,78.45
2022-11-11T01:04:30.784Z,76.70
2022-11-11T01:07:16.679Z,80.88
2022-11-11T01:10:02.526Z,75.28
2022-11-11T01:12:47.958Z,84.35
2022-11-11T01:15:34.061Z,85.38
2022-11-11T01:18:24.596Z,84.55
2022-11-11T01:21:19.468Z,68.57
2022-11-11T01:24:05.485Z,66.03
2022-11-11T01:26:51.198Z,72.82
2022-11-11T01:29:36.959Z,70.90
2022-11-11T01:32:22.589Z,61.85
2022-11-11T01:35:08.906Z,70.20
2022-11-11T01:37:56.030Z,64.30
2022-11-11T01:40:48.066Z,56.60
2022-11-11T01:43:34.028Z,69.43
2022-11-11T01:46:55.072Z,64.65
2022-11-11T01:49:56.685Z,78.20
2022-11-11T01:52:44.730Z,78.70
2022-11-11T01:55:31.865Z,73.95
2022-11-11T01:58:19.099Z,74.00
2022-11-11T02:01:06.011Z,77.53
2022-11-11T02:04:13.304Z,79.75
2022-11-11T02:07:03.999Z,87.20
2022-11-11T02:09:51.977Z,89.22
2022-11-11T02:12:56.381Z,91.15
2022-11-11T02:15:42.562Z,87.95
2022-11-11T02:18:30.476Z,93.40
2022-11-11T02:21:35.984Z,90.97
2022-11-11T02:24:23.246Z,123.47
2022-11-11T02:27:14.221Z,122.63
2022-11-11T02:30:01.542Z,144.18
2022-11-11T02:32:50.691Z,114.28
2022-11-11T02:35:43.496Z,107.82
2022-11-11T02:38:29.992Z,102.00
2022-11-11T02:41:36.493Z,93.35
2022-11-11T02:44:22.893Z,98.18
2022-11-11T02:47:09.055Z,77.88
2022-11-11T02:49:55.032Z,81.97
2022-11-11T02:52:40.992Z,80.35
2022-11-11T02:55:26.474Z,74.93
2022-11-11T02:58:13.240Z,84.38
2022-11-11T03:00:59.049Z,74.28
2022-11-11T03:03:44.451Z,83.45
2022-11-11T03:06:30.258Z,75.13
2022-11-11T03:09:15.814Z,74.70
2022-11-11T03:12:02.381Z,68.63
2022-11-11T03:14:48.585Z,68.47
2022-11-11T03:17:40.761Z,73.93
2022-11-11T03:20:45.379Z,67.60
2022-11-11T03:23:31.378Z,69.15
2022-11-11T03:26:16.854Z,72.07
2022-11-11T03:29:03.548Z,66.90
2022-11-11T03:31:49.379Z,66.88
2022-11-11T03:34:35.003Z,55.78
2022-11-11T03:37:39.715Z,66.85
2022-11-11T03:40:25.612Z,62.42
2022-11-11T03:43:12.491Z,66.18
2022-11-11T03:46:00.895Z,62.25
2022-11-11T03:48:46.864Z,65.35
2022-11-11T03:51:32.531Z,62.08
2022-11-11T03:54:18.063Z,77.25
2022-11-11T03:57:22.552Z,74.82
2022-11-11T04:00:14.468Z,68.65
2022-11-11T04:03:30.327Z,64.45
2022-11-11T04:06:34.696Z,65.72
2022-11-11T04:09:39.021Z,71.07
2022-11-11T04:12:26.053Z,76.22
2022-11-11T04:15:30.447Z,77.80
2022-11-11T04:18:16.238Z,62.63
2022-11-11T04:21:20.555Z,81.93
2022-11-11T04:24:26.014Z,69.90
2022-11-11T04:27:15.943Z,63.60
2022-11-11T04:30:01.634Z,72.28
2022-11-11T04:32:47.388Z,67.38
2022-11-11T04:35:33.218Z,69.65
2022-11-11T04:38:37.882Z,66.88
2022-11-11T04:41:25.722Z,63.20
2022-11-11T04:44:32.827Z,66.68
2022-11-11T04:47:18.680Z,71.95
2022-11-11T04:50:07.420Z,58.58
2022-11-11T04:52:53.392Z,77.25
2022-11-11T04:55:59.123Z,60.70
2022-11-11T04:58:46.165Z,78.28
2022-11-11T05:01:50.510Z,66.05
2022-11-11T05:04:36.234Z,71.68
2022-11-11T05:07:40.450Z,67.50
2022-11-11T05:10:26.404Z,70.80
2022-11-11T05:13:31.118Z,69.93
2022-11-11T05:16:41.593Z,68.00
2022-11-11T05:19:46.459Z,73.25
2022-11-11T05:22:43.434Z,79.53
2022-11-11T05:25:31.611Z,70.28
2022-11-11T05:28:17.204Z,74.80
2022-11-11T05:31:03.143Z,73.45
2022-11-11T05:33:48.827Z,92.50
2022-11-11T05:36:34.572Z,87.97
2022-11-11T05:39:20.242Z,84.10
2022-11-11T05:42:06.447Z,107.90
2022-11-11T05:44:52.354Z,95.25
2022-11-11T05:47:37.975Z,90.53
2022-11-11T05:50:23.734Z,81.75
2022-11-11T05:53:09.579Z,85.15
2022-11-11T05:55:55.288Z,85.40
2022-11-11T05:58:41.409Z,81.53
2022-11-11T06:01:27.215Z,87.38
2022-11-11T06:04:17.928Z,84.50
2022-11-11T06:07:04.520Z,100.78
2022-11-11T06:09:50.445Z,87.13
2022-11-11T06:13:01.383Z,117.28
2022-11-11T06:15:46.797Z,118.43
2022-11-11T06:18:32.866Z,94.38
2022-11-11T06:21:18.727Z,112.25
2022-11-11T06:24:04.560Z,86.07
2022-11-11T06:26:50.515Z,60.88
2022-11-11T06:29:36.408Z,59.90
2022-11-11T06:32:22.047Z,64.28
2022-11-11T06:35:07.807Z,65.78
2022-11-11T06:37:53.290Z,60.30
2022-11-11T06:40:39.131Z,60.00
2022-11-11T06:43:25.167Z,55.65
2022-11-11T06:46:22.922Z,59.42
2022-11-11T06:49:08.313Z,52.42
2022-11-11T06:51:53.875Z,60.42
2022-11-11T06:54:39.709Z,64.35
2022-11-11T06:57:25.346Z,68.53
2022-11-11T07:00:11.505Z,88.85
2022-11-11T07:02:57.352Z,85.75
2022-11-11T07:05:44.203Z,72.70
2022-11-11T07:08:30.627Z,64.35
2022-11-11T07:11:19.244Z,70.68
2022-11-11T07:14:05.069Z,70.13
2022-11-11T07:16:50.650Z,57.85
2022-11-11T07:19:36.885Z,65.78
2022-11-11T07:22:22.773Z,64.63
2022-11-11T07:25:08.653Z,73.38
2022-11-11T07:27:58.854Z,63.47
2022-11-11T07:30:45.249Z,68.78
2022-11-11T07:33:31.030Z,71.90
2022-11-11T07:36:16.775Z,74.65
2022-11-11T07:39:07.509Z,73.57
2022-11-11T07:41:54.366Z,77.60
2022-11-11T07:44:43.975Z,77.53
2022-11-11T07:47:34.157Z,80.25
2022-11-11T07:50:19.588Z,75.18
2022-11-11T07:53:05.247Z,72.07
2022-11-11T07:55:51.215Z,85.53
2022-11-11T07:58:37.128Z,85.70
2022-11-11T08:01:23.033Z,83.60
2022-11-11T08:04:09.137Z,75.05
2022-11-11T08:06:54.582Z,71.78
2022-11-11T08:09:39.999Z,61.80
2022-11-11T08:12:44.205Z,74.05
2022-11-11T08:15:29.971Z,60.08
2022-11-11T08:18:15.786Z,65.97
2022-11-11T08:21:02.518Z,64.72
2022-11-11T08:26:53.664Z,88.95
2022-11-11T08:29:39.428Z,85.40
2022-11-11T08:32:25.087Z,105.68
2022-11-11T08:35:10.862Z,97.22
2022-11-11T08:38:00.479Z,86.75
2022-11-11T08:40:46.417Z,72.93
2022-11-11T08:43:36.771Z,69.55
2022-11-11T08:46:24.703Z,55.85
2022-11-11T08:49:12.518Z,59.42
2022-11-11T08:51:58.204Z,76.18
2022-11-11T08:54:43.915Z,60.40
2022-11-11T08:57:29.558Z,53.53
2022-11-11T09:00:16.188Z,47.22
2022-11-11T09:03:04.798Z,53.55
2022-11-11T09:05:50.475Z,51.05
2022-11-11T09:08:36.014Z,53.78
2022-11-11T09:11:22.115Z,52.45
2022-11-11T09:14:07.651Z,47.85
2022-11-11T09:16:53.452Z,58.88
2022-11-11T09:19:39.046Z,35.20
2022-11-11T09:22:24.656Z,26.85
2022-11-11T09:25:10.944Z,28.45
2022-11-11T09:27:59.408Z,22.98
2022-11-11T09:30:45.366Z,21.80
2022-11-11T09:33:31.204Z,20.38
2022-11-11T09:36:17.089Z,15.82
2022-11-11T09:39:02.912Z,18.52
2022-11-11T09:42:05.266Z,25.92
2022-11-11T09:45:26.571Z,15.93
2022-11-11T09:48:48.021Z,17.55
2022-11-11T09:51:48.562Z,15.00
2022-11-11T09:54:50.753Z,19.33
2022-11-11T09:57:42.474Z,20.92
2022-11-11T10:00:30.504Z,17.48
2022-11-11T10:03:22.826Z,18.20
2022-11-11T10:06:32.356Z,20.98
2022-11-11T10:12:17.711Z,18.42
2022-11-11T10:15:10.674Z,19.13
2022-11-11T10:18:44.588Z,24.05
2022-11-11T10:22:13.703Z,20.88
2022-11-11T10:28:18.473Z,19.27
2022-11-11T10:31:16.173Z,20.45
2022-11-11T10:34:17.354Z,22.75
2022-11-11T10:37:03.290Z,24.63
2022-11-11T10:40:10.051Z,18.92
2022-11-11T10:42:56.152Z,20.23
2022-11-11T10:45:52.247Z,23.98
2022-11-11T10:48:49.649Z,19.58
2022-11-11T10:52:19.776Z,19.77
2022-11-11T10:55:42.262Z,16.85
2022-11-11T10:58:40.288Z,27.30
2022-11-11T11:01:35.566Z,27.65
2022-11-11T11:04:36.791Z,32.50
2022-11-11T11:07:50.022Z,26.30
2022-11-11T11:10:46.316Z,26.50
2022-11-11T11:14:20.250Z,31.80
2022-11-11T11:17:21.483Z,34.50
2022-11-11T11:20:20.080Z,29.55
2022-11-11T11:23:05.871Z,30.07
2022-11-11T11:25:54.920Z,39.42
2022-11-11T11:28:56.637Z,40.60
2022-11-11T11:31:42.557Z,37.85
2022-11-11T11:34:54.758Z,36.70
2022-11-11T11:37:51.045Z,34.53
2022-11-11T11:40:58.128Z,37.25
2022-11-11T11:43:45.420Z,40.40
2022-11-11T11:46:38.622Z,32.15
2022-11-11T11:50:13.468Z,38.58
2022-11-11T11:53:35.554Z,37.92
2022-11-11T11:56:43.729Z,36.97
2022-11-11T11:59:47.741Z,36.17
2022-11-11T12:02:57.355Z,35.17
2022-11-11T12:06:17.123Z,35.85
2022-11-11T12:09:27.116Z,32.35
2022-11-11T12:13:07.274Z,31.02
2022-11-11T12:16:28.761Z,28.95
2022-11-11T12:19:37.176Z,29.80
2022-11-11T12:22:54.707Z,26.42
2022-11-11T12:25:48.859Z,32.03
2022-11-11T12:28:59.499Z,26.85
2022-11-11T12:31:56.270Z,23.42
2022-11-11T12:35:12.856Z,27.65
2022-11-11T12:38:42.869Z,30.25
2022-11-11T12:42:12.378Z,33.72
2022-11-11T12:48:34.951Z,31.63
2022-11-11T12:51:58.729Z,29.67
2022-11-11T12:55:40.631Z,29.27
2022-11-11T12:58:48.494Z,25.55
2022-11-11T13:02:02.179Z,29.98
2022-11-11T13:05:09.364Z,27.98
2022-11-11T13:08:18.671Z,25.10
2022-11-11T13:14:28.442Z,21.27
2022-11-11T13:17:14.947Z,25.00
2022-11-11T13:20:14.784Z,19.75
2022-11-11T13:23:00.475Z,16.63
2022-11-11T13:25:53.356Z,19.50
2022-11-11T13:28:46.482Z,15.98
2022-11-11T13:31:40.385Z,19.83
2022-11-11T13:34:27.322Z,17.65
2022-11-11T13:37:28.343Z,14.45
2022-11-11T13:40:42.784Z,12.48
2022-11-11T13:43:50.676Z,17.17
2022-11-11T13:46:49.848Z,11.35
2022-11-11T13:49:52.258Z,11.95
2022-11-11T13:52:51.900Z,12.10
2022-11-11T13:55:44.343Z,14.38
2022-11-11T13:58:37.818Z,10.90
2022-11-11T14:01:24.126Z,9.60
2022-11-11T14:04:11.187Z,10.30
2022-11-11T14:06:57.023Z,11.02
2022-11-11T14:09:58.525Z,9.38
2022-11-11T14:12:55.062Z,7.28
2022-11-11T14:15:50.022Z,7.20
2022-11-11T14:18:42.385Z,11.65
2022-11-11T14:21:51.312Z,8.48
2022-11-11T14:24:43.265Z,6.82
2022-11-11T14:27:33.583Z,9.07
2022-11-11T14:30:39.312Z,6.40
2022-11-11T14:33:46.787Z,4.47
2022-11-11T14:37:19.555Z,6.15
2022-11-11T14:40:23.187Z,5.97
2022-11-11T14:43:40.381Z,9.07
2022-11-11T14:46:26.394Z,13.00
2022-11-11T14:49:43.744Z,6.22
2022-11-11T14:52:44.220Z,7.63
2022-11-11T14:55:37.434Z,6.75
2022-11-11T14:58:34.332Z,6.28
2022-11-11T15:01:21.446Z,4.88
2022-11-11T15:04:08.046Z,9.30
2022-11-11T15:07:01.522Z,8.63
2022-11-11T15:10:24.683Z,6.85
2022-11-11T15:13:50.416Z,7.03
2022-11-11T15:16:48.130Z,7.70
2022-11-11T15:20:07.484Z,7.53
2022-11-11T15:23:27.140Z,8.40
2022-11-11T15:26:41.740Z,8.57
2022-11-11T15:30:16.106Z,5.53
2022-11-11T15:33:44.462Z,8.82
2022-11-11T15:36:55.624Z,8.80
2022-11-11T15:39:55.185Z,9.40
2022-11-11T15:42:46.989Z,7.28
2022-11-11T15:45:35.429Z,8.15
2022-11-11T15:48:40.207Z,5.35
2022-11-11T15:51:32.571Z,5.47
2022-11-11T15:54:22.381Z,6.00
2022-11-11T15:57:31.486Z,8.25
2022-11-11T16:00:31.327Z,5.15
2022-11-11T16:03:36.283Z,6.28
2022-11-11T16:06:22.235Z,6.57
2022-11-11T16:09:13.283Z,4.53
2022-11-11T16:11:59.199Z,7.25
2022-11-11T16:14:47.751Z,7.78
2022-11-11T16:17:39.527Z,8.27
2022-11-11T16:20:37.606Z,7.43
2022-11-11T16:23:24.868Z,9.55
2022-11-11T16:26:11.481Z,7.30
2022-11-11T16:28:57.776Z,6.97
2022-11-11T16:31:45.701Z,9.02
2022-11-11T16:34:41.889Z,8.10
2022-11-11T16:37:27.804Z,10.18
2022-11-11T16:40:32.627Z,10.25
2022-11-11T16:43:24.589Z,12.27
2022-11-11T16:46:31.743Z,7.70
2022-11-11T16:49:36.543Z,12.95
2022-11-11T16:52:24.973Z,13.77
2022-11-11T16:55:32.051Z,7.35
2022-11-11T16:58:21.643Z,9.18
2022-11-11T17:03:56.860Z,11.05
2022-11-11T17:07:03.189Z,11.05
2022-11-11T17:09:48.893Z,11.20
2022-11-11T17:12:38.744Z,8.07
2022-11-11T17:15:24.635Z,5.65
2022-11-11T17:18:12.412Z,7.07
2022-11-11T17:20:58.782Z,12.10
2022-11-11T17:23:44.786Z,7.97
2022-11-11T17:26:30.966Z,5.82
2022-11-11T17:29:16.535Z,7.80
2022-11-11T17:32:02.212Z,6.38
2022-11-11T17:34:48.000Z,7.35
2022-11-11T17:37:37.896Z,7.40
2022-11-11T17:40:23.554Z,8.93
2022-11-11T17:43:09.147Z,8.68
2022-11-11T17:45:55.624Z,7.00
2022-11-11T17:48:41.051Z,6.80
2022-11-11T17:51:26.867Z,10.10
2022-11-11T17:54:12.408Z,5.95
2022-11-11T17:56:58.248Z,5.85
2022-11-11T17:59:44.122Z,7.72
2022-11-11T18:02:30.257Z,7.85
2022-11-11T18:05:15.985Z,9.30
2022-11-11T18:08:02.954Z,5.63
2022-11-11T18:10:48.839Z,7.32
2022-11-11T18:13:34.540Z,7.70
2022-11-11T18:16:21.906Z,7.15
2022-11-11T18:19:07.588Z,6.93
2022-11-11T18:21:53.295Z,7.45
2022-11-11T18:24:39.346Z,9.32
2022-11-11T18:27:25.141Z,21.08
2022-11-11T18:30:11.016Z,20.63
2022-11-11T18:32:57.012Z,12.98
2022-11-11T18:35:42.839Z,8.18
2022-11-11T18:38:30.024Z,14.95
2022-11-11T18:41:17.346Z,10.18
2022-11-11T18:44:03.507Z,9.65
2022-11-11T18:46:49.295Z,14.38
2022-11-11T18:49:34.899Z,10.98
2022-11-11T18:52:20.621Z,10.45
2022-11-11T18:55:07.284Z,9.50
2022-11-11T18:57:52.674Z,11.88
2022-11-11T19:00:38.536Z,11.20
2022-11-11T19:03:24.694Z,10.73
2022-11-11T19:06:10.957Z,8.95
2022-11-11T19:09:05.686Z,13.45
2022-11-11T19:11:51.456Z,16.08
2022-11-11T19:14:37.117Z,11.38
2022-11-11T19:17:23.158Z,18.38
2022-11-11T19:20:09.453Z,21.23
2022-11-11T19:22:55.235Z,19.67
2022-11-11T19:25:41.123Z,18.48
2022-11-11T19:28:27.438Z,25.73
2022-11-11T19:31:16.663Z,19.77
2022-11-11T19:34:02.576Z,19.88
2022-11-11T19:36:48.362Z,17.10
2022-11-11T19:39:34.044Z,16.48
2022-11-11T19:42:19.700Z,17.90
2022-11-11T19:45:06.305Z,13.35
2022-11-11T19:47:52.071Z,15.80
2022-11-11T19:50:38.166Z,22.55
2022-11-11T19:53:24.285Z,18.98
2022-11-11T19:56:17.176Z,15.85
2022-11-11T19:59:02.888Z,17.92
2022-11-11T20:01:48.635Z,18.48
2022-11-11T20:04:34.123Z,19.50
2022-11-11T20:07:19.813Z,23.08
2022-11-11T20:10:06.538Z,15.30
2022-11-11T20:12:52.587Z,15.50
2022-11-11T20:15:38.422Z,20.20
2022-11-11T20:18:24.155Z,20.17
2022-11-11T20:21:10.505Z,24.17
2022-11-11T20:23:56.729Z,21.55
2022-11-11T20:26:42.723Z,21.65
2022-11-11T20:29:28.728Z,23.52
2022-11-11T20:32:14.680Z,27.08
2022-11-11T20:35:00.688Z,22.42
2022-11-11T20:37:46.446Z,23.60
2022-11-11T20:40:32.287Z,26.85
2022-11-11T20:43:18.053Z,24.65
2022-11-11T20:46:15.901Z,23.30
2022-11-11T20:49:01.803Z,26.17
2022-11-11T20:51:47.840Z,23.30
2022-11-11T20:54:33.626Z,21.63
2022-11-11T20:57:19.793Z,26.73
2022-11-11T21:00:06.736Z,37.55
2022-11-11T21:02:52.431Z,20.05
2022-11-11T21:05:38.312Z,24.35
2022-11-11T21:08:31.406Z,20.60
2022-11-11T21:11:20.875Z,24.48
2022-11-11T21:14:07.679Z,24.83
2022-11-11T21:16:53.389Z,35.03
2022-11-11T21:19:39.163Z,22.60
2022-11-11T21:22:24.862Z,30.58
2022-11-11T21:25:10.463Z,25.65
2022-11-11T21:27:55.949Z,29.30
2022-11-11T21:30:41.698Z,29.77
2022-11-11T21:33:27.873Z,26.38
2022-11-11T21:36:13.873Z,25.30
2022-11-11T21:39:01.450Z,29.77
2022-11-11T21:41:47.148Z,24.63
2022-11-11T21:44:32.764Z,27.23
2022-11-11T21:47:18.517Z,37.08
2022-11-11T21:50:04.845Z,32.55
2022-11-11T21:52:50.363Z,32.35
2022-11-11T21:55:36.088Z,24.65
2022-11-11T21:58:21.980Z,37.03
2022-11-11T22:01:13.715Z,31.05
2022-11-11T22:04:03.272Z,26.42
2022-11-11T22:06:49.003Z,27.65
2022-11-11T22:09:34.380Z,30.17
2022-11-11T22:12:20.012Z,26.45
2022-11-11T22:15:06.608Z,21.80
2022-11-11T22:17:55.491Z,27.45
2022-11-11T22:20:41.093Z,24.90
2022-11-11T22:23:26.756Z,27.13
2022-11-11T22:26:12.374Z,25.00
2022-11-11T22:28:57.933Z,26.00
2022-11-11T22:31:43.957Z,22.35
2022-11-11T22:34:29.689Z,31.63
2022-11-11T22:37:15.443Z,19.20
2022-11-11T22:40:01.116Z,24.17
2022-11-11T22:42:46.984Z,22.77
2022-11-11T22:45:32.539Z,23.80
2022-11-11T22:48:18.474Z,26.55
2022-11-11T22:51:13.106Z,22.95
2022-11-11T22:54:04.298Z,21.50
2022-11-11T22:56:50.094Z,19.30
2022-11-11T22:59:35.777Z,25.90
2022-11-11T23:02:21.290Z,30.45
2022-11-11T23:05:07.069Z,27.88
2022-11-11T23:07:53.522Z,32.05
2022-11-11T23:10:39.175Z,23.38
2022-11-11T23:13:24.924Z,25.45
2022-11-11T23:16:13.326Z,27.58
2022-11-11T23:18:59.930Z,28.95
2022-11-11T23:21:45.674Z,32.88
2022-11-11T23:24:31.409Z,32.20
2022-11-11T23:27:17.102Z,33.33
2022-11-11T23:30:03.232Z,32.47
2022-11-11T23:32:52.637Z,29.75
2022-11-11T23:38:24.609Z,26.73
2022-11-11T23:41:11.027Z,35.05
2022-11-11T23:43:56.694Z,34.20
2022-11-11T23:46:42.288Z,34.05
2022-11-11T23:49:28.021Z,31.05
2022-11-11T23:52:13.699Z,32.83
2022-11-11T23:54:59.503Z,38.60
2022-11-11T23:57:45.235Z,32.10
